X  Schließen METAR Luftfahrt Wetterdaten        EDDE Erfurt
Temperatur
0°C Temperatur
0°C Taupunkt
100% Feuchtigkeit



Wind
24 km/h
15 MPS
7 M/S
13 KTS



20°
NNO
Aktuelle Wetterlage

Mostly Cloudy with Light Snow Meistens bewölkt , Leicht Schnee
Luftdruck 1022 (hPa) - 30.17 (inHg)
Sichtweite 1 (Meile) - 2 (Km)
Flughafen
Flughafen Code EDDE

Position : Erfurt
Entfernung: 25 (Km)

Metar:
METAR COR EDDE 050550Z 02013KT 1500 0600NE R28/1700U -SN FZFG SCT001 BKN003 M00/M00 Q1020 TEMPO 0200 FZFG BKN001

Zeit: 05.03.2021 06:50 CET